Time;durP1;ratioP1;P1;durP2;ratioP2;P2;SDS_P1;SDS_P2;PMS_P1;PMS_P2;Temp;Humidity;BMP_temperature;BMP_pressure;BME280_temperature;BME280_humidity;BME280_pressure;Samples;Min_cycle;Max_cycle;Signal;HPM_P1;HPM_P2
2022/11/27 00:00:49;;;;;;;3.83;3.63;;;;;;;2.68;100.00;102227.16;6137268;23;20013;-74
2022/11/27 00:03:19;;;;;;;5.00;3.80;;;;;;;1.70;100.00;102032.38;6151358;23;20024;-73
2022/11/27 00:05:55;;;;;;;3.58;3.33;;;;;;;3.49;100.00;102339.91;6151395;23;20021;-75
2022/11/27 00:08:25;;;;;;;3.10;3.00;;;;;;;1.91;100.00;102078.25;6127325;23;20116;-74
2022/11/27 00:11:03;;;;;;;3.47;3.35;;;;;;;3.48;100.00;102326.06;6153563;23;20057;-74
2022/11/27 00:13:33;;;;;;;3.50;3.40;;;;;;;3.48;100.00;102333.88;6132697;23;20022;-74
2022/11/27 00:16:00;;;;;;;3.50;3.40;;;;;;;2.97;100.00;102249.78;6157810;23;20024;-74
2022/11/27 00:18:31;;;;;;;4.03;3.72;;;;;;;3.47;100.00;102318.28;6124908;23;20031;-74
2022/11/27 00:21:15;;;;;;;3.42;3.22;;;;;;;3.07;100.00;102232.56;6167415;23;20266;-74
2022/11/27 00:23:45;;;;;;;3.60;3.40;;;;;;;-0.08;100.00;101699.56;6130022;23;20024;-74
2022/11/27 00:26:13;;;;;;;3.50;3.35;;;;;;;3.63;100.00;102307.09;6180966;23;20048;-74
2022/11/27 00:28:44;;;;;;;3.85;3.65;;;;;;;0.84;100.00;101838.75;6159095;23;20017;-74
2022/11/27 00:31:36;;;;;;;3.53;3.33;;;;;;;3.55;100.00;102306.22;6179580;23;20115;-73
2022/11/27 00:34:12;;;;;;;5.55;4.18;;;;;;;3.48;100.00;102320.03;6149228;23;20033;-75
2022/11/27 00:36:47;;;;;;;4.40;4.13;;;;;;;3.37;100.00;102287.13;6178379;23;20071;-74
2022/11/27 00:39:30;;;;;;;3.72;3.50;;;;;;;3.18;100.00;102275.78;6135601;23;20029;-74
2022/11/27 00:42:00;;;;;;;3.10;3.00;;;;;;;2.33;100.00;102137.16;6168665;23;20035;-74
2022/11/27 00:44:31;;;;;;;4.00;3.80;;;;;;;0.51;100.00;101847.16;6121082;23;20441;-74
2022/11/27 00:47:06;;;;;;;3.50;3.30;;;;;;;3.27;100.00;102295.75;6180976;23;20107;-74
2022/11/27 00:49:45;;;;;;;3.85;3.67;;;;;;;3.09;100.00;102267.13;6127750;23;20051;-75
2022/11/27 00:52:24;;;;;;;3.65;3.45;;;;;;;3.33;100.00;102294.91;6152289;23;20029;-74
2022/11/27 00:54:51;;;;;;;3.28;3.17;;;;;;;3.30;100.00;102274.97;6143427;23;20024;-75
2022/11/27 00:57:25;;;;;;;3.47;3.38;;;;;;;-0.72;100.00;101573.53;6163383;23;20099;-75
2022/11/27 01:00:08;;;;;;;3.95;3.42;;;;;;;3.64;100.00;102346.91;6152356;23;20256;-76
2022/11/27 01:02:52;;;;;;;4.20;4.00;;;;;;;0.79;100.00;101867.16;6132153;23;20025;-75
2022/11/27 01:05:19;;;;;;;3.42;3.33;;;;;;;0.11;100.00;101717.75;6146937;23;20310;-75
2022/11/27 01:07:49;;;;;;;3.50;3.35;;;;;;;1.72;100.00;101986.66;6124671;23;20442;-73
2022/11/27 01:10:22;;;;;;;4.07;3.78;;;;;;;0.39;100.00;101771.28;6160117;23;20032;-74
2022/11/27 01:12:53;;;;;;;4.50;4.10;;;;;;;2.92;100.00;102189.25;6152653;23;20025;-74
2022/11/27 01:15:31;;;;;;;3.63;3.42;;;;;;;2.58;100.00;102147.63;6147134;23;20024;-74
2022/11/27 01:18:08;;;;;;;3.33;3.22;;;;;;;3.48;100.00;102292.34;6125979;23;20032;-74
2022/11/27 01:20:41;;;;;;;5.30;4.72;;;;;;;2.90;100.00;102198.75;6123122;23;20471;-74
2022/11/27 01:23:23;;;;;;;3.33;3.13;;;;;;;3.56;100.00;102285.44;6142294;23;20632;-74
2022/11/27 01:25:56;;;;;;;3.22;3.13;;;;;;;1.32;100.00;101895.91;6123650;23;20024;-74
2022/11/27 01:28:34;;;;;;;3.20;3.10;;;;;;;2.92;100.00;102164.19;6145275;23;20011;-74
2022/11/27 01:31:17;;;;;;;4.80;3.47;;;;;;;2.30;100.00;102045.63;6128385;23;20028;-74
2022/11/27 01:34:02;;;;;;;3.40;3.20;;;;;;;3.68;100.00;102276.81;6129534;23;20013;-74
2022/11/27 01:36:31;;;;;;;3.50;3.30;;;;;;;2.19;100.00;102006.75;6160234;23;20019;-74
2022/11/27 01:39:14;;;;;;;3.92;3.53;;;;;;;1.91;100.00;102016.13;6135338;23;20025;-73
2022/11/27 01:42:13;;;;;;;3.60;3.47;;;;;;;3.70;100.00;102261.25;6093254;23;20012;-76
2022/11/27 01:44:52;;;;;;;4.13;3.92;;;;;;;3.73;100.00;102253.47;6152578;23;20024;-75
2022/11/27 01:47:51;;;;;;;3.17;3.08;;;;;;;3.20;100.00;102159.94;6181914;23;20077;-75
2022/11/27 01:50:33;;;;;;;3.13;3.03;;;;;;;3.67;100.00;102251.72;6116971;23;20455;-74
2022/11/27 01:53:17;;;;;;;17.30;16.42;;;;;;;3.85;100.00;102253.47;6024284;23;20195;-74
2022/11/27 01:55:55;;;;;;;3.20;3.10;;;;;;;3.89;100.00;102238.75;6125696;23;20557;-74
2022/11/27 01:58:32;;;;;;;3.25;3.15;;;;;;;3.93;100.00;102228.38;6160534;23;20015;-75
2022/11/27 02:00:59;;;;;;;3.80;3.60;;;;;;;0.57;100.00;101664.66;6126881;23;20403;-74
2022/11/27 02:03:30;;;;;;;3.45;3.25;;;;;;;3.76;100.00;102250.88;6150891;23;20029;-74
2022/11/27 02:06:01;;;;;;;3.72;3.55;;;;;;;2.18;100.00;101956.63;6157568;23;20455;-74
2022/11/27 02:08:29;;;;;;;3.78;3.47;;;;;;;3.82;100.00;102235.28;6128022;23;20013;-74
2022/11/27 02:11:18;;;;;;;3.40;3.20;;;;;;;3.74;100.00;102260.38;6141827;23;20023;-74
2022/11/27 02:14:42;;;;;;;3.08;2.97;;;;;;;3.07;100.00;102142.63;6157456;23;20013;-74
2022/11/27 02:18:00;;;;;;;2.95;2.85;;;;;;;3.63;100.00;102236.13;6188592;23;20153;-74
2022/11/27 02:21:05;;;;;;;3.15;3.05;;;;;;;3.65;100.00;102224.00;6085925;23;20025;-74
2022/11/27 02:24:00;;;;;;;3.65;3.30;;;;;;;2.63;100.00;102055.22;6153838;23;20462;-74
2022/11/27 02:26:51;;;;;;;3.15;3.05;;;;;;;3.57;100.00;102224.88;6115991;23;20032;-74
2022/11/27 02:29:26;;;;;;;11.65;3.60;;;;;;;2.12;100.00;101987.69;6158832;23;20242;-74
2022/11/27 02:32:12;;;;;;;3.70;3.50;;;;;;;3.53;100.00;102236.13;6139265;23;20069;-74
2022/11/27 02:34:59;;;;;;;3.60;3.40;;;;;;;3.53;100.00;102245.66;6151898;23;20005;-75
2022/11/27 02:37:49;;;;;;;3.05;2.95;;;;;;;3.51;100.00;102237.00;6150221;23;20096;-74
2022/11/27 02:40:34;;;;;;;3.17;3.05;;;;;;;3.49;100.00;102228.31;6156158;23;20061;-74
2022/11/27 02:43:14;;;;;;;3.30;3.20;;;;;;;-2.72;100.00;101254.22;6154833;23;20021;-75
2022/11/27 02:45:50;;;;;;;3.88;3.67;;;;;;;3.08;100.00;102196.22;6123091;23;20464;-75
2022/11/27 02:48:37;;;;;;;3.78;3.58;;;;;;;3.44;100.00;102198.91;6174101;23;20020;-75
2022/11/27 02:51:11;;;;;;;3.55;3.42;;;;;;;0.04;100.00;101623.06;6153179;23;20139;-77
2022/11/27 02:53:55;;;;;;;3.50;3.40;;;;;;;3.49;100.00;102199.75;6129401;23;20092;-76
2022/11/27 02:56:32;;;;;;;3.40;3.25;;;;;;;3.42;100.00;102224.84;6174853;23;20450;-73
2022/11/27 02:59:09;;;;;;;3.45;3.25;;;;;;;2.65;100.00;102071.66;6152218;23;20037;-75
2022/11/27 03:01:44;;;;;;;3.50;3.40;;;;;;;2.57;100.00;102063.00;6178423;23;20016;-75
2022/11/27 03:04:22;;;;;;;3.35;3.15;;;;;;;3.03;100.00;102142.59;6126127;23;20057;-75
2022/11/27 03:06:58;;;;;;;3.30;3.20;;;;;;;3.30;100.00;102198.88;6147098;23;20031;-75
2022/11/27 03:09:35;;;;;;;4.05;3.85;;;;;;;2.29;100.00;102057.72;6113386;23;20044;-75
2022/11/27 03:12:11;;;;;;;3.33;3.22;;;;;;;3.29;100.00;102185.03;6113336;23;20092;-74
2022/11/27 03:15:06;;;;;;;4.20;3.95;;;;;;;3.36;100.00;102191.09;6146958;23;20023;-74
2022/11/27 03:17:45;;;;;;;5.45;4.20;;;;;;;3.39;100.00;102181.59;6123343;23;20027;-74
2022/11/27 03:20:29;;;;;;;3.95;3.63;;;;;;;3.40;100.00;102174.66;6143388;23;20028;-75
2022/11/27 03:23:00;;;;;;;3.70;3.50;;;;;;;3.37;100.00;102177.28;6124517;23;20029;-74
2022/11/27 03:25:33;;;;;;;4.43;4.13;;;;;;;3.35;100.00;102177.28;6148177;23;20356;-74
2022/11/27 03:28:10;;;;;;;4.40;4.13;;;;;;;3.35;100.00;102179.00;6166169;23;20159;-74
2022/11/27 03:30:54;;;;;;;4.03;3.83;;;;;;;3.40;100.00;102172.94;6155189;23;20589;-74
2022/11/27 03:33:28;;;;;;;3.60;3.50;;;;;;;3.45;100.00;102206.69;6120380;23;20032;-73
2022/11/27 03:36:13;;;;;;;3.53;3.33;;;;;;;2.88;100.00;102091.56;6129700;23;20422;-73
2022/11/27 03:38:46;;;;;;;3.72;3.53;;;;;;;2.95;100.00;102101.13;6153118;23;20028;-74
2022/11/27 03:41:30;;;;;;;5.10;3.35;;;;;;;3.42;100.00;102190.25;6152721;23;20069;-74
2022/11/27 03:44:03;;;;;;;3.70;3.50;;;;;;;3.46;100.00;102181.59;6127324;23;20102;-74
2022/11/27 03:46:58;;;;;;;4.90;4.63;;;;;;;3.47;100.00;102189.41;6127426;23;20533;-74
2022/11/27 03:50:01;;;;;;;3.83;3.60;;;;;;;3.45;100.00;102180.75;6135541;23;20020;-74
2022/11/27 03:52:53;;;;;;;4.38;4.07;;;;;;;1.46;100.00;101852.00;6138432;23;20029;-74
2022/11/27 03:56:05;;;;;;;4.35;4.15;;;;;;;3.50;100.00;102188.53;6137174;23;20384;-74
2022/11/27 03:59:06;;;;;;;3.33;3.22;;;;;;;3.43;100.00;102153.94;6156398;23;20013;-74
2022/11/27 04:01:39;;;;;;;6.85;4.55;;;;;;;3.51;100.00;102167.78;6137525;23;20032;-74
2022/11/27 04:04:15;;;;;;;4.38;4.18;;;;;;;3.72;100.00;102169.50;6132256;23;20585;-74
2022/11/27 04:07:00;;;;;;;4.90;4.50;;;;;;;1.78;100.00;101860.78;6154968;23;20488;-74
2022/11/27 04:09:39;;;;;;;4.97;4.70;;;;;;;1.77;100.00;101827.97;6119330;23;20012;-74
2022/11/27 04:12:15;;;;;;;4.68;4.30;;;;;;;3.43;100.00;102103.72;6172316;23;20029;-74
2022/11/27 04:14:56;;;;;;;4.03;3.83;;;;;;;3.36;100.00;102076.94;6125620;23;20019;-74
2022/11/27 04:17:27;;;;;;;5.75;5.13;;;;;;;3.82;100.00;102149.59;6122738;23;20017;-74
2022/11/27 04:20:01;;;;;;;3.90;3.60;;;;;;;3.84;100.00;102140.06;6153135;23;20028;-75
2022/11/27 04:22:33;;;;;;;3.83;3.63;;;;;;;3.39;100.00;102070.00;6157796;23;20423;-75
2022/11/27 04:25:15;;;;;;;3.72;3.53;;;;;;;3.87;100.00;102140.06;6124081;23;20103;-75
2022/11/27 04:27:59;;;;;;;4.05;3.85;;;;;;;2.82;100.00;101980.94;6157947;23;20048;-74
2022/11/27 04:30:30;;;;;;;4.03;3.73;;;;;;;3.85;100.00;102123.63;6121714;23;20088;-73
2022/11/27 04:33:15;;;;;;;3.55;3.38;;;;;;;3.11;100.00;101999.13;6126750;23;20096;-73
2022/11/27 04:35:50;;;;;;;3.30;3.10;;;;;;;3.05;100.00;101975.78;6186797;23;20016;-74
2022/11/27 04:38:22;;;;;;;4.75;4.45;;;;;;;3.55;100.00;102083.84;6124009;23;20033;-74
2022/11/27 04:41:02;;;;;;;4.88;4.43;;;;;;;2.89;100.00;101955.91;6154347;23;20377;-75
2022/11/27 04:43:42;;;;;;;;;;;;;;;;;;;;;
2022/11/27 04:46:16;;;;;;;4.30;4.00;;;;;;;3.48;100.00;102063.94;6151192;23;20101;-74
2022/11/27 04:49:02;;;;;;;4.95;4.63;;;;;;;3.48;100.00;102034.53;6187029;23;20024;-74
2022/11/27 04:51:32;;;;;;;4.30;4.00;;;;;;;3.92;100.00;102104.56;6112500;23;20025;-73
2022/11/27 04:54:09;;;;;;;4.00;3.70;;;;;;;3.94;100.00;102096.78;6150683;23;20043;-74
2022/11/27 04:56:58;;;;;;;3.85;3.65;;;;;;;2.88;100.00;101934.28;6152044;23;20005;-74
2022/11/27 04:59:34;;;;;;;4.32;4.00;;;;;;;3.61;100.00;102051.84;6151841;23;20004;-74
2022/11/27 05:02:10;;;;;;;6.28;4.07;;;;;;;3.44;100.00;102017.25;6133014;23;20048;-73
2022/11/27 05:04:44;;;;;;;5.60;4.75;;;;;;;3.77;100.00;102076.03;6173416;23;20005;-73
2022/11/27 05:07:25;;;;;;;4.63;4.25;;;;;;;3.93;100.00;102111.50;6128840;23;20033;-74
2022/11/27 05:10:02;;;;;;;5.55;4.85;;;;;;;3.02;100.00;101934.25;6133311;23;20022;-74
2022/11/27 05:12:37;;;;;;;5.00;4.57;;;;;;;3.08;100.00;101952.41;6152266;23;20024;-74
2022/11/27 05:15:17;;;;;;;4.32;3.92;;;;;;;3.95;100.00;102099.38;6135862;23;20370;-73
2022/11/27 05:18:05;;;;;;;4.13;3.85;;;;;;;3.94;100.00;102100.22;6157261;23;20056;-73
2022/11/27 05:20:33;;;;;;;3.53;3.25;;;;;;;3.34;100.00;102048.38;6158213;23;20017;-74
2022/11/27 05:23:07;;;;;;;4.43;4.13;;;;;;;3.91;100.00;102128.81;6149558;23;20601;-74
2022/11/27 05:25:46;;;;;;;4.57;4.32;;;;;;;3.94;100.00;102122.75;6152949;23;20024;-74
2022/11/27 05:28:22;;;;;;;6.93;3.83;;;;;;;1.72;100.00;101717.53;6145284;23;20037;-74
2022/11/27 05:30:53;;;;;;;3.88;3.67;;;;;;;3.93;100.00;102102.81;6150495;23;20455;-75
2022/11/27 05:33:25;;;;;;;4.43;4.13;;;;;;;0.67;100.00;101592.38;6126950;23;20058;-74
2022/11/27 05:35:54;;;;;;;4.32;4.07;;;;;;;3.58;100.00;102059.59;6150160;23;20028;-74
2022/11/27 05:38:34;;;;;;;5.80;4.45;;;;;;;3.52;100.00;102011.16;6178925;23;20034;-75
2022/11/27 05:41:18;;;;;;;3.80;3.53;;;;;;;2.99;100.00;101931.69;6125903;23;20025;-75
2022/11/27 05:44:11;;;;;;;7.97;4.82;;;;;;;3.92;100.00;102085.53;6143458;23;20518;-75
2022/11/27 05:47:10;;;;;;;3.60;3.30;;;;;;;3.03;100.00;101937.72;6146015;23;20028;-75
2022/11/27 05:49:53;;;;;;;3.88;3.67;;;;;;;3.03;100.00;101933.41;6144959;23;20082;-75
2022/11/27 05:52:35;;;;;;;3.90;3.67;;;;;;;3.92;100.00;102085.53;6175108;23;20126;-74
2022/11/27 05:55:09;;;;;;;4.65;4.28;;;;;;;3.47;100.00;102002.53;6123404;23;20058;-76
2022/11/27 05:57:44;;;;;;;4.57;4.28;;;;;;;0.79;100.00;101569.16;6149778;23;20061;-75
2022/11/27 06:00:20;;;;;;;3.78;3.58;;;;;;;3.91;100.00;102073.38;6120298;23;20246;-74
2022/11/27 06:02:57;;;;;;;5.25;4.82;;;;;;;3.91;100.00;102076.88;6108640;23;20167;-75
2022/11/27 06:05:28;;;;;;;4.88;3.42;;;;;;;3.95;100.00;102082.94;6145155;23;20021;-75
2022/11/27 06:07:56;;;;;;;4.38;4.05;;;;;;;3.82;100.00;102063.91;6161305;23;20016;-74
2022/11/27 06:10:38;;;;;;;4.45;4.18;;;;;;;3.12;100.00;101923.00;6155520;23;20268;-75
2022/11/27 06:13:06;;;;;;;4.05;3.80;;;;;;;2.72;100.00;101866.00;6121423;23;20009;-73
2022/11/27 06:15:45;;;;;;;3.72;3.53;;;;;;;3.73;100.00;102020.66;6181470;23;20046;-72
2022/11/27 06:18:15;;;;;;;4.25;3.95;;;;;;;4.04;100.00;102074.25;6151807;23;20044;-74
2022/11/27 06:20:51;;;;;;;3.70;3.50;;;;;;;4.03;100.00;102072.50;6180143;23;20038;-74
2022/11/27 06:23:24;;;;;;;3.75;3.55;;;;;;;1.96;100.00;101708.91;6144374;23;20021;-73
2022/11/27 06:25:52;;;;;;;3.63;3.42;;;;;;;3.84;100.00;102012.81;6123382;23;20044;-73
2022/11/27 06:28:24;;;;;;;3.70;3.50;;;;;;;3.80;100.00;102008.50;6133545;23;20027;-76
2022/11/27 06:30:56;;;;;;;4.13;3.92;;;;;;;3.48;100.00;101951.50;6106378;23;20017;-74
2022/11/27 06:33:40;;;;;;;3.40;3.20;;;;;;;3.82;100.00;102008.50;6157934;23;20043;-74
2022/11/27 06:36:12;;;;;;;4.03;3.83;;;;;;;4.09;100.00;102044.78;6120428;23;20005;-74
2022/11/27 06:38:48;;;;;;;3.83;3.63;;;;;;;4.11;100.00;102057.75;6162764;23;20029;-73
2022/11/27 06:41:38;;;;;;;4.10;3.83;;;;;;;4.06;100.00;102054.31;6134333;23;20337;-73
2022/11/27 06:44:09;;;;;;;3.55;3.35;;;;;;;2.66;100.00;101814.19;6152738;23;20080;-73
2022/11/27 06:46:39;;;;;;;4.60;4.30;;;;;;;3.27;100.00;101924.72;6147844;23;20019;-73
2022/11/27 06:49:14;;;;;;;3.80;3.60;;;;;;;3.57;100.00;101956.66;6147611;23;20025;-74
2022/11/27 06:51:50;;;;;;;6.20;4.18;;;;;;;3.13;100.00;101914.38;6123098;23;20020;-75
2022/11/27 06:54:26;;;;;;;3.42;3.33;;;;;;;3.26;100.00;101915.22;6158574;23;20029;-74
2022/11/27 06:57:19;;;;;;;5.93;5.03;;;;;;;3.68;100.00;101985.19;6123575;23;20020;-74
2022/11/27 06:59:55;;;;;;;3.55;3.35;;;;;;;3.11;100.00;101925.63;6164264;23;20009;-73
2022/11/27 07:02:22;;;;;;;3.90;3.70;;;;;;;3.97;100.00;102014.53;6177526;23;20394;-74
2022/11/27 07:04:49;;;;;;;4.85;4.50;;;;;;;3.59;100.00;101941.94;6187982;23;20065;-74
2022/11/27 07:07:15;;;;;;;4.25;3.95;;;;;;;3.78;100.00;101971.28;6155258;23;20032;-74
2022/11/27 07:09:41;;;;;;;3.28;3.17;;;;;;;3.55;100.00;101927.25;6190990;23;20009;-74
2022/11/27 07:12:08;;;;;;;3.72;3.53;;;;;;;4.09;100.00;102008.41;6156265;23;20040;-76
2022/11/27 07:14:34;;;;;;;4.13;3.92;;;;;;;4.08;100.00;101985.88;6158131;23;20013;-73
2022/11/27 07:17:01;;;;;;;3.80;3.60;;;;;;;4.09;100.00;101971.16;6187426;23;21492;-75
2022/11/27 07:19:27;;;;;;;3.65;3.47;;;;;;;3.71;100.00;101902.97;6158163;23;20029;-73
2022/11/27 07:21:54;;;;;;;4.38;4.13;;;;;;;4.34;100.00;101998.75;6187753;23;20008;-73
2022/11/27 07:24:21;;;;;;;4.03;3.83;;;;;;;3.85;100.00;101915.00;6158391;23;20032;-72
2022/11/27 07:26:47;;;;;;;4.03;3.83;;;;;;;3.64;100.00;101853.66;6188290;23;20173;-73
2022/11/27 07:29:13;;;;;;;4.88;4.53;;;;;;;4.16;100.00;101936.50;6151693;23;20030;-72
2022/11/27 07:31:40;;;;;;;4.03;3.72;;;;;;;3.91;100.00;101881.19;6184722;23;20045;-73
2022/11/27 07:34:06;;;;;;;3.85;3.65;;;;;;;4.48;100.00;101975.28;6155345;23;20024;-73
2022/11/27 07:36:41;;;;;;;4.32;4.03;;;;;;;4.58;100.00;101978.69;6182156;23;20016;-73
2022/11/27 07:39:07;;;;;;;4.28;3.85;;;;;;;4.57;100.00;101980.44;6156741;23;20039;-73
2022/11/27 07:41:34;;;;;;;4.03;3.83;;;;;;;4.38;100.00;101935.47;6183852;23;20147;-73
2022/11/27 07:44:00;;;;;;;3.88;3.67;;;;;;;4.19;100.00;101910.50;6153326;23;20027;-73
2022/11/27 07:46:28;;;;;;;4.63;4.32;;;;;;;4.67;100.00;101988.16;6151356;23;20111;-74
2022/11/27 07:48:55;;;;;;;6.15;3.72;;;;;;;4.76;100.00;101981.16;6140426;23;20074;-73
2022/11/27 07:51:21;;;;;;;3.65;3.47;;;;;;;3.54;100.00;101759.41;6184141;23;20036;-73
2022/11/27 07:53:50;;;;;;;8.20;4.80;;;;;;;4.85;100.00;101966.34;6150735;23;20172;-73
2022/11/27 07:56:18;;;;;;;3.95;3.70;;;;;;;4.87;100.00;101967.19;6179637;23;20024;-74
2022/11/27 07:58:45;;;;;;;4.07;3.88;;;;;;;4.71;100.00;101935.25;6149575;23;20087;-73
2022/11/27 08:01:14;;;;;;;4.63;4.32;;;;;;;4.91;100.00;101964.59;6154846;23;20016;-73
2022/11/27 08:03:43;;;;;;;4.68;3.92;;;;;;;3.78;100.00;101784.34;6165266;23;20021;-74
2022/11/27 08:06:18;;;;;;;3.63;3.53;;;;;;;4.98;100.00;101965.38;6153547;23;20420;-73
2022/11/27 08:08:46;;;;;;;4.28;3.95;;;;;;;4.85;100.00;101925.63;6129799;23;20087;-74
2022/11/27 08:11:15;;;;;;;3.90;3.65;;;;;;;5.06;100.00;101954.91;6148309;23;20021;-74
2022/11/27 08:13:42;;;;;;;9.02;4.22;;;;;;;5.12;100.00;101949.66;6167331;23;20016;-73
2022/11/27 08:16:09;;;;;;;4.43;4.10;;;;;;;4.50;100.00;101833.16;6148436;23;20013;-72
2022/11/27 08:18:35;;;;;;;4.10;3.90;;;;;;;5.20;100.00;101945.22;6184424;23;20552;-73
2022/11/27 08:21:02;;;;;;;4.13;3.72;;;;;;;5.19;100.00;101927.88;6158799;23;20438;-72
2022/11/27 08:23:28;;;;;;;7.05;4.25;;;;;;;5.45;100.00;101952.78;6185010;23;20446;-73
2022/11/27 08:25:54;;;;;;;9.57;4.10;;;;;;;5.06;100.00;101884.66;6147633;23;20029;-73
2022/11/27 08:28:21;;;;;;;5.15;3.80;;;;;;;5.58;100.00;101952.63;6161994;23;20042;-74
2022/11/27 08:30:58;;;;;;;4.40;4.07;;;;;;;5.64;100.00;101953.47;6153469;23;20036;-74
2022/11/27 08:33:25;;;;;;;4.18;3.97;;;;;;;5.43;100.00;101902.47;6181712;23;20044;-73
2022/11/27 08:35:52;;;;;;;8.38;4.70;;;;;;;5.70;100.00;101940.38;6155899;23;20786;-73
2022/11/27 08:38:19;;;;;;;4.15;3.95;;;;;;;5.37;100.00;101861.75;6184751;23;20054;-74
2022/11/27 08:40:56;;;;;;;4.65;4.30;;;;;;;5.84;100.00;101935.84;6155883;23;20017;-73
2022/11/27 08:43:23;;;;;;;4.47;4.18;;;;;;;5.77;100.00;101903.81;6174850;23;20065;-73
2022/11/27 08:45:50;;;;;;;4.97;4.68;;;;;;;5.60;100.00;101866.69;6151902;23;20017;-73
2022/11/27 08:48:17;;;;;;;5.50;5.00;;;;;;;6.10;100.00;101939.88;6183159;23;20040;-73
2022/11/27 08:50:43;;;;;;;4.85;4.55;;;;;;;6.05;100.00;101926.03;6155096;23;20023;-73
2022/11/27 08:53:10;;;;;;;6.00;5.68;;;;;;;6.10;100.00;101919.91;6168247;23;20033;-73
2022/11/27 08:55:37;;;;;;;4.55;4.15;;;;;;;5.93;100.00;101886.22;6156498;23;20098;-74
2022/11/27 08:58:03;;;;;;;5.13;4.72;;;;;;;5.60;100.00;101841.50;6180420;23;20518;-72
2022/11/27 09:00:31;;;;;;;4.55;4.25;;;;;;;6.18;100.00;101923.25;6153497;23;20037;-73
2022/11/27 09:02:59;;;;;;;5.22;4.93;;;;;;;6.19;100.00;101909.34;6160847;23;20033;-74
2022/11/27 09:05:26;;;;;;;3.88;3.70;;;;;;;6.18;100.00;101909.38;6154812;23;20018;-73
2022/11/27 09:07:53;;;;;;;6.00;5.53;;;;;;;6.03;100.00;101863.53;6135511;23;20048;-73
2022/11/27 09:10:21;;;;;;;4.85;4.55;;;;;;;5.62;100.00;101791.16;6150304;23;20074;-74
2022/11/27 09:12:49;;;;;;;4.88;4.57;;;;;;;6.30;100.00;101887.47;6128158;23;20017;-73
2022/11/27 09:15:16;;;;;;;5.40;5.00;;;;;;;6.12;100.00;101855.56;6127701;23;20047;-72
2022/11/27 09:17:43;;;;;;;5.10;4.70;;;;;;;6.33;100.00;101880.44;6155931;23;20021;-74
2022/11/27 09:20:13;;;;;;;9.10;5.22;;;;;;;5.93;100.00;101812.41;6190080;23;20021;-72
2022/11/27 09:22:39;;;;;;;13.70;5.47;;;;;;;6.06;100.00;101807.91;6154925;23;20080;-72
2022/11/27 09:25:06;;;;;;;4.50;4.30;;;;;;;6.51;100.00;101878.44;6144966;23;20107;-72
2022/11/27 09:27:32;;;;;;;4.90;4.60;;;;;;;6.58;100.00;101874.84;6152119;23;20029;-72
2022/11/27 09:29:59;;;;;;;7.65;5.45;;;;;;;6.19;100.00;101809.41;6182629;23;20080;-72
2022/11/27 09:32:25;;;;;;;4.63;4.40;;;;;;;6.64;100.00;101853.88;6125643;23;20021;-72
2022/11/27 09:34:52;;;;;;;6.50;5.03;;;;;;;6.74;100.00;101857.19;6184373;23;20959;-72
2022/11/27 09:37:18;;;;;;;4.78;4.38;;;;;;;6.64;100.00;101822.56;6153539;23;20029;-73
2022/11/27 09:39:45;;;;;;;6.85;4.50;;;;;;;6.99;100.00;101852.38;6184113;23;20040;-72
2022/11/27 09:42:38;;;;;;;5.72;5.20;;;;;;;6.66;100.00;101786.88;6140031;23;20045;-72
2022/11/27 09:45:11;;;;;;;6.55;4.82;;;;;;;6.59;100.00;101772.22;6153100;23;20149;-73
2022/11/27 09:47:43;;;;;;;4.82;4.53;;;;;;;6.66;100.00;101783.44;6182041;23;20008;-72
2022/11/27 09:50:14;;;;;;;5.13;4.82;;;;;;;6.59;100.00;101757.47;6149205;23;20033;-73
2022/11/27 09:52:46;;;;;;;6.47;5.10;;;;;;;6.79;100.00;101780.56;6151531;23;20009;-71
2022/11/27 09:55:37;;;;;;;13.57;5.65;;;;;;;6.41;100.00;101733.47;6148770;23;20029;-73
2022/11/27 09:58:28;;;;;;;5.55;5.05;;;;;;;7.12;100.00;101847.81;6149845;23;20028;-73
2022/11/27 10:00:54;;;;;;;5.88;5.50;;;;;;;7.14;100.00;101851.25;6135376;23;20058;-72
2022/11/27 10:03:25;;;;;;;6.10;5.60;;;;;;;6.44;100.00;101736.03;6179535;23;20094;-72
2022/11/27 10:06:19;;;;;;;5.32;4.90;;;;;;;7.10;99.42;101837.38;6124653;23;20024;-73
2022/11/27 10:09:01;;;;;;;5.68;5.28;;;;;;;7.19;99.61;101870.28;6116427;23;20028;-73
2022/11/27 10:11:44;;;;;;;6.80;4.88;;;;;;;7.05;99.18;101801.81;6146712;23;20031;-72
2022/11/27 10:14:35;;;;;;;5.05;4.55;;;;;;;7.22;98.39;101820.63;6148018;23;20314;-72
2022/11/27 10:17:19;;;;;;;5.18;4.75;;;;;;;7.20;97.13;101809.34;6160238;23;20036;-72
2022/11/27 10:20:07;;;;;;;4.50;4.20;;;;;;;7.30;97.21;101815.25;6147034;23;20015;-72
2022/11/27 10:22:43;;;;;;;4.95;4.70;;;;;;;7.33;96.77;101813.41;6148634;23;20457;-72
2022/11/27 10:25:24;;;;;;;5.75;5.22;;;;;;;7.34;97.25;101809.06;6155338;23;20478;-73
2022/11/27 10:28:19;;;;;;;5.43;5.03;;;;;;;6.57;96.54;101681.00;6154410;23;20054;-73
2022/11/27 10:30:54;;;;;;;5.63;5.20;;;;;;;6.95;96.03;101735.88;6181740;23;20036;-72
2022/11/27 10:33:26;;;;;;;6.43;5.72;;;;;;;6.92;94.86;101728.13;6151257;23;20084;-72
2022/11/27 10:35:53;;;;;;;5.20;4.80;;;;;;;7.32;95.51;101789.97;6149633;23;20034;-72
2022/11/27 10:38:25;;;;;;;5.43;5.13;;;;;;;6.47;94.98;101648.13;6178984;23;20048;-73
2022/11/27 10:41:31;;;;;;;5.03;4.63;;;;;;;7.00;94.90;101710.56;6132604;23;20017;-72
2022/11/27 10:44:25;;;;;;;6.53;5.03;;;;;;;7.39;94.48;101774.09;6131512;23;20408;-72
2022/11/27 10:46:59;;;;;;;5.70;5.20;;;;;;;7.22;93.58;101742.28;6152004;23;20304;-72
2022/11/27 10:49:26;;;;;;;5.43;4.75;;;;;;;7.19;93.92;101727.53;6176224;23;20028;-72
2022/11/27 10:51:52;;;;;;;6.03;4.90;;;;;;;7.30;93.76;101739.53;6150633;23;20032;-72
2022/11/27 10:54:31;;;;;;;5.03;4.65;;;;;;;7.39;93.42;101749.75;6181049;23;20337;-72
2022/11/27 10:57:51;;;;;;;5.47;4.97;;;;;;;7.46;94.40;101740.91;6117113;23;20032;-72
2022/11/27 11:00:21;;;;;;;5.53;5.13;;;;;;;7.48;94.19;101738.25;6032106;23;20025;-72
2022/11/27 11:02:58;;;;;;;5.45;4.95;;;;;;;6.83;94.33;101623.94;6030825;23;20174;-74
2022/11/27 11:05:25;;;;;;;4.90;4.68;;;;;;;7.25;93.82;101689.16;6085683;23;20388;-75
2022/11/27 11:08:18;;;;;;;4.93;4.63;;;;;;;7.11;93.62;101651.13;6164100;23;20494;-75
2022/11/27 11:10:57;;;;;;;5.22;4.72;;;;;;;7.50;92.94;101692.91;6125869;23;20518;-73
2022/11/27 11:13:50;;;;;;;4.93;4.63;;;;;;;7.61;92.22;101703.09;6182395;23;20032;-74
2022/11/27 11:16:21;;;;;;;5.65;5.10;;;;;;;7.62;92.11;101694.38;6145601;23;20028;-73
2022/11/27 11:18:53;;;;;;;12.55;4.43;;;;;;;7.50;91.55;101661.56;6164076;23;20108;-71
2022/11/27 11:21:32;;;;;;;5.82;4.30;;;;;;;7.73;90.66;101676.69;6152527;23;20524;-71
2022/11/27 11:24:05;;;;;;;5.32;5.03;;;;;;;7.26;90.24;101596.88;6157679;23;20025;-73
2022/11/27 11:26:47;;;;;;;5.00;4.65;;;;;;;7.54;90.75;101612.75;6150653;23;20040;-72
2022/11/27 11:29:27;;;;;;;5.07;4.78;;;;;;;6.01;91.26;101362.41;6179930;23;20035;-72
2022/11/27 11:31:55;;;;;;;5.88;5.38;;;;;;;7.40;92.07;101613.06;6150600;23;20078;-73
2022/11/27 11:34:26;;;;;;;5.13;4.72;;;;;;;7.54;94.37;101618.81;6173925;23;20029;-67
2022/11/27 11:37:01;;;;;;;5.30;4.90;;;;;;;5.94;95.50;101364.25;6152507;23;20483;-68
2022/11/27 11:39:32;;;;;;;5.00;4.55;;;;;;;7.66;95.74;101662.06;6183968;23;20469;-66
2022/11/27 11:41:58;;;;;;;10.80;6.00;;;;;;;7.64;95.27;101629.00;6156563;23;20079;-68
2022/11/27 11:44:34;;;;;;;7.13;4.82;;;;;;;7.31;95.07;101548.84;6185202;23;20028;-67
2022/11/27 11:47:00;;;;;;;5.43;4.97;;;;;;;7.79;93.96;101605.13;6155686;23;20081;-69
2022/11/27 11:49:29;;;;;;;4.82;4.35;;;;;;;7.47;93.89;101567.59;6184482;23;20028;-68
2022/11/27 11:52:11;;;;;;;5.50;5.13;;;;;;;7.73;93.67;101610.50;6127618;23;20464;-68
2022/11/27 11:54:49;;;;;;;6.65;6.00;;;;;;;7.85;93.79;101610.19;6183096;23;20020;-68
2022/11/27 11:57:53;;;;;;;9.18;4.90;;;;;;;7.98;94.13;101605.50;6156307;23;20029;-68
2022/11/27 12:00:22;;;;;;;5.55;5.15;;;;;;;7.88;92.75;101581.38;6152951;23;20060;-68
2022/11/27 12:03:22;;;;;;;11.23;5.03;;;;;;;8.09;91.24;101585.13;6163097;23;20020;-68
2022/11/27 12:06:07;;;;;;;5.10;4.80;;;;;;;8.24;91.15;101581.25;6156804;23;20108;-68
2022/11/27 12:08:57;;;;;;;5.32;4.93;;;;;;;7.94;90.24;101515.00;6152646;23;20025;-68